• Join FlightAware (Why Join?)
  • Login
  • US Flag 
09:14AM EDT


 

Airport Tracker/Info


-or-


 

Live Flight TrackerFlight Track Log ✈ N319EE ✈ 16-Jun-2014 ✈ KBGM - KAUG

Flight Track Log - Related Links

Times and Time Zones

All times are in EDT time to prevent confusion due to time zone crossing. See the N319EE flight status page for this flight to view local times or setup timezone preferences in your user account.

Time Position Orientation Groundspeed Altitude Reporting Facility
EDT Latitude Longitude Course Direction KTS MPH feet Rate Location/Type
08:48AM 42.2097 -75.9381 61° Northeast 170 196 21,000  Level Boston Center
08:49AM 42.2394 -75.8683 60° Northeast 189 217 4,300 -7,440 Descending Boston Center
08:50AM 42.2633 -75.7972 66° East 198 228 6,000 1,560 Climbing Boston Center
08:51AM 42.2903 -75.7253 63° Northeast 212 244 7,500 1,560 Climbing Boston Center
08:52AM 42.3183 -75.6511 63° Northeast 218 251 9,200 1,620 Climbing Boston Center
08:54AM 42.3644 -75.4822 61° Northeast  Level FlightAware Approximate
08:54AM 42.3453 -75.5750 64° Northeast 222 255 10,900  Level Boston Center
08:55AM 42.3733 -75.5000 63° Northeast 223 257 12,600 1,620 Climbing Boston Center
08:56AM 42.4003 -75.4250 64° Northeast 222 255 14,200 1,620 Climbing Boston Center
08:57AM 42.4258 -75.3486 66° East 223 257 15,900 1,620 Climbing Boston Center
08:58AM 42.4539 -75.2747 63° Northeast 222 255 17,500 1,440 Climbing Boston Center
08:59AM 42.4811 -75.2006 64° Northeast 222 255 18,900 1,440 Climbing Boston Center
09:00AM 42.5133 -75.1139 63° Northeast 216 249 20,500 1,020 Climbing Boston Center
09:01AM 42.5436 -75.0358 62° Northeast 231 266 21,000 240 Climbing Boston Center
09:02AM 42.5789 -74.9422 63° Northeast 277 319 21,000  Level Boston Center
09:03AM 42.6103 -74.8503 65° Northeast 286 329 21,000  Level Boston Center
09:04AM 42.6483 -74.7511 62° Northeast 291 335 21,000  Level Boston Center
09:05AM 42.6847 -74.6525 63° Northeast 292 336 21,000  Level Boston Center
09:06AM 42.7283 -74.5336 63° Northeast 292 336 21,000  Level Boston Center
09:07AM 42.7644 -74.4339 64° Northeast 292 336 21,000  Level Boston Center
09:08AM 42.8011 -74.3367 63° Northeast 292 336 21,000  Level Boston Center
09:09AM 42.8364 -74.2378 64° Northeast 292 336 21,000  Level Boston Center
09:10AM 42.8722 -74.1400 63° Northeast 292 336 21,000  Level Boston Center
09:11AM 42.9069 -74.0414 64° Northeast 290 334 21,000  Level Boston Center
09:12AM 42.9419 -73.9436 64° Northeast 290 334 21,000  Level Boston Center
09:13AM 42.9778 -73.8458 63° Northeast 290 334 21,000  Level Boston Center
09:14AM 43.0131 -73.7472 64° Northeast 289 333 21,000  Level Boston Center
09:15AM 43.0483 -73.6475 64° Northeast 289 333 21,000  Level Boston Center
09:16AM 43.0833 -73.5483 64° Northeast 289 333 21,000  Level Boston Center
09:17AM 43.1256 -73.4303 64° Northeast 289 333 21,000  Level Boston Center
09:18AM 43.1597 -73.3308 65° Northeast 289 333 21,000  Level Boston Center
09:19AM 43.1942 -73.2317 64° Northeast 289 333 21,000  Level Boston Center
09:20AM 43.2289 -73.1339 64° Northeast 289 333 21,000  Level Boston Center
09:21AM 43.2631 -73.0353 65° Northeast 288 331 21,000  Level Boston Center
09:22AM 43.2969 -72.9375 65° Northeast 288 331 21,000  Level Boston Center
09:23AM 43.3300 -72.8403 65° Northeast 287 330 21,000  Level Boston Center
09:24AM 43.3633 -72.7428 65° Northeast 285 328 21,000  Level Boston Center
09:25AM 43.3967 -72.6467 64° Northeast 284 327 21,000  Level Boston Center
09:26AM 43.4286 -72.5514 65° Northeast 279 321 21,000  Level Boston Center
09:27AM 43.4681 -72.4372 65° Northeast 278 320 21,000  Level Boston Center
09:28AM 43.5006 -72.3403 65° Northeast 278 320 21,000  Level Boston Center
09:29AM 43.5325 -72.2456 65° Northeast 278 320 21,000  Level Boston Center
09:30AM 43.5656 -72.1486 65° Northeast 278 320 21,000  Level Boston Center
09:31AM 43.5975 -72.0522 65° Northeast 278 320 21,000  Level Boston Center
09:32AM 43.6292 -71.9556 66° East 278 320 21,000  Level Boston Center
09:33AM 43.6608 -71.8586 66° East 278 320 21,000  Level Boston Center
09:34AM 43.6936 -71.7617 65° Northeast 278 320 21,000  Level Boston Center
09:35AM 43.7261 -71.6661 65° Northeast 278 320 21,000  Level Boston Center
09:36AM 43.7631 -71.5475 67° East 278 320 21,000  Level Boston Center
09:37AM 43.7908 -71.4564 67° East 279 321 21,000  Level Boston Center
09:38AM 43.8206 -71.3553 68° East 281 323 21,000  Level Boston Center
09:39AM 43.8514 -71.2542 67° East 281 323 21,000  Level Boston Center
09:40AM 43.8811 -71.1528 68° East 282 325 21,000 -660 Level Boston Center
09:42AM 43.9206 -71.0275 66° East 292 336 19,700 -1,620 Descending Boston Center
09:43AM 43.9567 -70.9061 68° East 321 369 17,700 -2,040 Descending Boston Center
09:44AM 43.9919 -70.7864 68° East 332 382 15,700 -2,040 Descending Boston Center
09:45AM 44.0264 -70.6719 67° East 324 373 13,600 -1,980 Descending Boston Center
09:46AM 44.0592 -70.5614 68° East 313 360 11,600 -2,040 Descending Boston Center
09:47AM 44.0919 -70.4469 68° East 298 343 9,500 -1,920 Descending Boston Center
09:48AM 44.1219 -70.3461 67° East 283 326 7,800 -1,740 Descending Boston Center
09:49AM 44.1486 -70.2508 69° East 268 308 6,000 -1,680 Descending Boston Center
09:50AM 44.1717 -70.1719 68° East 264 304 4,400 -1,500 Descending Boston Center